sensor_id;sensor_type;location;lat;lon;timestamp;pressure;altitude;pressure_sealevel;temperature;humidity
58662;BME280;44432;49.786;22.760;2023-03-03T00:01:59;99609.16;;;-3.44;81.87
58662;BME280;44432;49.786;22.760;2023-03-03T00:04:30;99608.20;;;-3.45;81.95
58662;BME280;44432;49.786;22.760;2023-03-03T00:07:01;99603.13;;;-3.46;81.99
58662;BME280;44432;49.786;22.760;2023-03-03T00:09:31;99600.59;;;-3.46;81.93
58662;BME280;44432;49.786;22.760;2023-03-03T00:12:19;99601.85;;;-3.47;82.13
58662;BME280;44432;49.786;22.760;2023-03-03T00:14:50;99598.85;;;-3.48;82.05
58662;BME280;44432;49.786;22.760;2023-03-03T00:17:24;99597.59;;;-3.50;82.19
58662;BME280;44432;49.786;22.760;2023-03-03T00:19:55;99601.72;;;-3.50;82.29
58662;BME280;44432;49.786;22.760;2023-03-03T00:22:30;99592.10;;;-3.52;82.23
58662;BME280;44432;49.786;22.760;2023-03-03T00:25:23;99599.35;;;-3.50;82.41
58662;BME280;44432;49.786;22.760;2023-03-03T00:28:01;99594.63;;;-3.52;82.35
58662;BME280;44432;49.786;22.760;2023-03-03T00:30:37;99600.77;;;-3.53;82.26
58662;BME280;44432;49.786;22.760;2023-03-03T00:33:14;99599.21;;;-3.55;82.38
58662;BME280;44432;49.786;22.760;2023-03-03T00:35:49;99600.06;;;-3.57;82.34
58662;BME280;44432;49.786;22.760;2023-03-03T00:38:20;99599.82;;;-3.58;82.46
58662;BME280;44432;49.786;22.760;2023-03-03T00:40:52;99599.92;;;-3.60;82.56
58662;BME280;44432;49.786;22.760;2023-03-03T00:43:24;99596.34;;;-3.61;82.58
58662;BME280;44432;49.786;22.760;2023-03-03T00:45:56;99594.52;;;-3.62;82.69
58662;BME280;44432;49.786;22.760;2023-03-03T00:48:29;99596.81;;;-3.63;82.62
58662;BME280;44432;49.786;22.760;2023-03-03T00:51:01;99597.58;;;-3.64;82.48
58662;BME280;44432;49.786;22.760;2023-03-03T00:53:38;99598.00;;;-3.65;82.91
58662;BME280;44432;49.786;22.760;2023-03-03T00:56:08;99594.58;;;-3.65;82.80
58662;BME280;44432;49.786;22.760;2023-03-03T00:58:39;99592.39;;;-3.66;82.70
58662;BME280;44432;49.786;22.760;2023-03-03T01:01:11;99587.27;;;-3.66;82.66
58662;BME280;44432;49.786;22.760;2023-03-03T01:03:42;99584.53;;;-3.66;82.81
58662;BME280;44432;49.786;22.760;2023-03-03T01:06:13;99588.20;;;-3.67;82.86
58662;BME280;44432;49.786;22.760;2023-03-03T01:08:45;99586.60;;;-3.66;82.93
58662;BME280;44432;49.786;22.760;2023-03-03T01:11:18;99587.45;;;-3.64;83.16
58662;BME280;44432;49.786;22.760;2023-03-03T01:13:51;99582.95;;;-3.61;83.12
58662;BME280;44432;49.786;22.760;2023-03-03T01:16:22;99586.10;;;-3.57;83.29
58662;BME280;44432;49.786;22.760;2023-03-03T01:18:53;99589.08;;;-3.53;83.42
58662;BME280;44432;49.786;22.760;2023-03-03T01:21:24;99587.52;;;-3.48;83.54
58662;BME280;44432;49.786;22.760;2023-03-03T01:23:54;99587.67;;;-3.44;83.42
58662;BME280;44432;49.786;22.760;2023-03-03T01:26:25;99590.11;;;-3.38;83.51
58662;BME280;44432;49.786;22.760;2023-03-03T01:28:56;99592.52;;;-3.31;83.53
58662;BME280;44432;49.786;22.760;2023-03-03T01:31:27;99588.36;;;-3.23;83.68
58662;BME280;44432;49.786;22.760;2023-03-03T01:33:58;99589.02;;;-3.16;83.73
58662;BME280;44432;49.786;22.760;2023-03-03T01:36:29;99587.36;;;-3.09;83.68
58662;BME280;44432;49.786;22.760;2023-03-03T01:39:00;99588.91;;;-3.02;83.61
58662;BME280;44432;49.786;22.760;2023-03-03T01:41:31;99587.21;;;-2.96;83.51
58662;BME280;44432;49.786;22.760;2023-03-03T01:44:03;99590.19;;;-2.90;83.64
58662;BME280;44432;49.786;22.760;2023-03-03T01:46:41;99585.14;;;-2.85;83.36
58662;BME280;44432;49.786;22.760;2023-03-03T01:49:18;99587.13;;;-2.79;83.17
58662;BME280;44432;49.786;22.760;2023-03-03T01:51:53;99591.67;;;-2.74;83.17
58662;BME280;44432;49.786;22.760;2023-03-03T01:54:29;99583.06;;;-2.69;83.21
58662;BME280;44432;49.786;22.760;2023-03-03T01:57:04;99583.69;;;-2.64;83.17
58662;BME280;44432;49.786;22.760;2023-03-03T01:59:39;99582.30;;;-2.59;83.13
58662;BME280;44432;49.786;22.760;2023-03-03T02:02:11;99587.35;;;-2.54;83.28
58662;BME280;44432;49.786;22.760;2023-03-03T02:04:42;99582.55;;;-2.50;83.15
58662;BME280;44432;49.786;22.760;2023-03-03T02:07:15;99585.23;;;-2.42;83.28
58662;BME280;44432;49.786;22.760;2023-03-03T02:09:54;99585.36;;;-2.37;83.09
58662;BME280;44432;49.786;22.760;2023-03-03T02:12:33;99584.94;;;-2.33;82.99
58662;BME280;44432;49.786;22.760;2023-03-03T02:15:16;99580.20;;;-2.27;82.87
58662;BME280;44432;49.786;22.760;2023-03-03T02:17:47;99585.13;;;-2.22;83.10
58662;BME280;44432;49.786;22.760;2023-03-03T02:20:27;99585.79;;;-2.19;82.95
58662;BME280;44432;49.786;22.760;2023-03-03T02:23:06;99586.84;;;-2.15;82.97
58662;BME280;44432;49.786;22.760;2023-03-03T02:25:44;99585.05;;;-2.12;82.70
58662;BME280;44432;49.786;22.760;2023-03-03T02:28:18;99586.11;;;-2.11;82.60
58662;BME280;44432;49.786;22.760;2023-03-03T02:30:52;99585.52;;;-2.08;82.63
58662;BME280;44432;49.786;22.760;2023-03-03T02:33:23;99583.55;;;-2.05;82.56
58662;BME280;44432;49.786;22.760;2023-03-03T02:35:54;99583.69;;;-2.03;82.55
58662;BME280;44432;49.786;22.760;2023-03-03T02:38:28;99578.64;;;-2.00;82.59
58662;BME280;44432;49.786;22.760;2023-03-03T02:41:06;99574.34;;;-1.98;82.57
58662;BME280;44432;49.786;22.760;2023-03-03T02:43:43;99568.10;;;-1.95;82.57
58662;BME280;44432;49.786;22.760;2023-03-03T02:46:16;99566.42;;;-1.94;82.61
58662;BME280;44432;49.786;22.760;2023-03-03T02:48:47;99566.25;;;-1.91;82.68
58662;BME280;44432;49.786;22.760;2023-03-03T02:51:18;99568.92;;;-1.90;82.61
58662;BME280;44432;49.786;22.760;2023-03-03T02:53:49;99565.96;;;-1.90;82.27
58662;BME280;44432;49.786;22.760;2023-03-03T02:56:20;99567.96;;;-1.92;82.30
58662;BME280;44432;49.786;22.760;2023-03-03T02:58:50;99568.39;;;-1.92;82.43
58662;BME280;44432;49.786;22.760;2023-03-03T03:01:21;99562.16;;;-1.92;82.40
58662;BME280;44432;49.786;22.760;2023-03-03T03:03:52;99561.09;;;-1.92;82.37
58662;BME280;44432;49.786;22.760;2023-03-03T03:06:23;99566.33;;;-1.92;82.52
58662;BME280;44432;49.786;22.760;2023-03-03T03:08:54;99564.91;;;-1.92;82.52
58662;BME280;44432;49.786;22.760;2023-03-03T03:11:25;99564.80;;;-1.93;82.50
58662;BME280;44432;49.786;22.760;2023-03-03T03:13:56;99567.34;;;-1.92;82.46
58662;BME280;44432;49.786;22.760;2023-03-03T03:16:26;99562.59;;;-1.93;82.55
58662;BME280;44432;49.786;22.760;2023-03-03T03:18:57;99561.27;;;-1.94;82.55
58662;BME280;44432;49.786;22.760;2023-03-03T03:21:29;99561.55;;;-1.93;82.72
58662;BME280;44432;49.786;22.760;2023-03-03T03:24:00;99558.77;;;-1.93;82.61
58662;BME280;44432;49.786;22.760;2023-03-03T03:26:31;99557.70;;;-1.92;82.64
58662;BME280;44432;49.786;22.760;2023-03-03T03:29:02;99553.65;;;-1.91;82.81
58662;BME280;44432;49.786;22.760;2023-03-03T03:31:33;99547.89;;;-1.91;82.78
58662;BME280;44432;49.786;22.760;2023-03-03T03:34:03;99546.60;;;-1.89;82.77
58662;BME280;44432;49.786;22.760;2023-03-03T03:36:34;99549.13;;;-1.87;82.97
58662;BME280;44432;49.786;22.760;2023-03-03T03:39:08;99549.72;;;-1.84;82.90
58662;BME280;44432;49.786;22.760;2023-03-03T03:41:38;99553.77;;;-1.81;82.92
58662;BME280;44432;49.786;22.760;2023-03-03T03:44:09;99551.75;;;-1.77;82.75
58662;BME280;44432;49.786;22.760;2023-03-03T03:46:40;99549.91;;;-1.74;83.07
58662;BME280;44432;49.786;22.760;2023-03-03T03:49:11;99547.73;;;-1.70;82.96
58662;BME280;44432;49.786;22.760;2023-03-03T03:51:42;99537.50;;;-1.72;82.89
58662;BME280;44432;49.786;22.760;2023-03-03T03:54:12;99539.21;;;-1.63;83.01
58662;BME280;44432;49.786;22.760;2023-03-03T03:56:43;99535.95;;;-1.61;82.86
58662;BME280;44432;49.786;22.760;2023-03-03T03:59:14;99536.28;;;-1.59;82.82
58662;BME280;44432;49.786;22.760;2023-03-03T04:01:45;99526.42;;;-1.59;82.96
58662;BME280;44432;49.786;22.760;2023-03-03T04:04:16;99526.33;;;-1.56;82.88
58662;BME280;44432;49.786;22.760;2023-03-03T04:06:47;99529.73;;;-1.53;82.89
58662;BME280;44432;49.786;22.760;2023-03-03T04:09:18;99530.18;;;-1.52;82.72
58662;BME280;44432;49.786;22.760;2023-03-03T04:11:48;99527.85;;;-1.51;82.83
58662;BME280;44432;49.786;22.760;2023-03-03T04:14:19;99527.02;;;-1.49;82.87
58662;BME280;44432;49.786;22.760;2023-03-03T04:16:50;99526.29;;;-1.47;82.95
58662;BME280;44432;49.786;22.760;2023-03-03T04:19:20;99524.91;;;-1.45;82.85
58662;BME280;44432;49.786;22.760;2023-03-03T04:21:51;99522.84;;;-1.43;82.97
58662;BME280;44432;49.786;22.760;2023-03-03T04:24:22;99524.92;;;-1.42;83.04
58662;BME280;44432;49.786;22.760;2023-03-03T04:26:53;99523.21;;;-1.40;83.01
58662;BME280;44432;49.786;22.760;2023-03-03T04:29:23;99524.45;;;-1.38;83.10
58662;BME280;44432;49.786;22.760;2023-03-03T04:31:54;99515.95;;;-1.36;83.13
58662;BME280;44432;49.786;22.760;2023-03-03T04:34:25;99513.15;;;-1.33;83.17
58662;BME280;44432;49.786;22.760;2023-03-03T04:36:56;99509.23;;;-1.29;83.26
58662;BME280;44432;49.786;22.760;2023-03-03T04:39:26;99507.89;;;-1.26;83.33
58662;BME280;44432;49.786;22.760;2023-03-03T04:41:58;99508.47;;;-1.22;83.28
58662;BME280;44432;49.786;22.760;2023-03-03T04:44:28;99507.33;;;-1.21;83.18
58662;BME280;44432;49.786;22.760;2023-03-03T04:46:59;99506.11;;;-1.19;83.15
58662;BME280;44432;49.786;22.760;2023-03-03T04:49:30;99502.73;;;-1.18;83.10
58662;BME280;44432;49.786;22.760;2023-03-03T04:52:01;99501.10;;;-1.17;83.26
58662;BME280;44432;49.786;22.760;2023-03-03T04:54:32;99501.55;;;-1.15;83.14
58662;BME280;44432;49.786;22.760;2023-03-03T04:57:02;99503.50;;;-1.13;83.05
58662;BME280;44432;49.786;22.760;2023-03-03T04:59:33;99507.44;;;-1.13;83.16
58662;BME280;44432;49.786;22.760;2023-03-03T05:02:04;99506.27;;;-1.11;83.18
58662;BME280;44432;49.786;22.760;2023-03-03T05:04:35;99505.02;;;-1.11;83.15
58662;BME280;44432;49.786;22.760;2023-03-03T05:07:06;99508.05;;;-1.10;83.28
58662;BME280;44432;49.786;22.760;2023-03-03T05:09:37;99504.31;;;-1.09;83.27
58662;BME280;44432;49.786;22.760;2023-03-03T05:12:08;99501.98;;;-1.08;83.46
58662;BME280;44432;49.786;22.760;2023-03-03T05:14:39;99499.27;;;-1.06;83.38
58662;BME280;44432;49.786;22.760;2023-03-03T05:17:10;99500.16;;;-1.05;83.42
58662;BME280;44432;49.786;22.760;2023-03-03T05:19:41;99499.30;;;-1.03;83.44
58662;BME280;44432;49.786;22.760;2023-03-03T05:22:11;99500.42;;;-1.00;83.43
58662;BME280;44432;49.786;22.760;2023-03-03T05:24:42;99506.23;;;-0.97;83.42
58662;BME280;44432;49.786;22.760;2023-03-03T05:27:17;99507.10;;;-0.95;83.52
58662;BME280;44432;49.786;22.760;2023-03-03T05:29:48;99510.32;;;-0.93;83.53
58662;BME280;44432;49.786;22.760;2023-03-03T05:32:19;99510.89;;;-0.89;83.42
58662;BME280;44432;49.786;22.760;2023-03-03T05:34:50;99507.52;;;-0.88;83.52
58662;BME280;44432;49.786;22.760;2023-03-03T05:37:21;99508.67;;;-0.84;83.52
58662;BME280;44432;49.786;22.760;2023-03-03T05:39:52;99512.20;;;-0.79;83.56
58662;BME280;44432;49.786;22.760;2023-03-03T05:42:23;99511.73;;;-0.75;83.42
58662;BME280;44432;49.786;22.760;2023-03-03T05:44:54;99521.89;;;-0.71;83.38
58662;BME280;44432;49.786;22.760;2023-03-03T05:47:25;99517.13;;;-0.68;83.30
58662;BME280;44432;49.786;22.760;2023-03-03T05:49:55;99521.93;;;-0.66;83.25
58662;BME280;44432;49.786;22.760;2023-03-03T05:52:26;99512.02;;;-0.63;83.28
58662;BME280;44432;49.786;22.760;2023-03-03T05:54:57;99518.20;;;-0.58;83.28
58662;BME280;44432;49.786;22.760;2023-03-03T05:57:28;99512.91;;;-0.53;83.15
58662;BME280;44432;49.786;22.760;2023-03-03T05:59:59;99515.77;;;-0.51;83.11
58662;BME280;44432;49.786;22.760;2023-03-03T06:02:29;99515.08;;;-0.45;83.18
58662;BME280;44432;49.786;22.760;2023-03-03T06:05:00;99513.13;;;-0.42;83.01
58662;BME280;44432;49.786;22.760;2023-03-03T06:07:31;99517.31;;;-0.41;82.85
58662;BME280;44432;49.786;22.760;2023-03-03T06:10:02;99514.63;;;-0.38;82.87
58662;BME280;44432;49.786;22.760;2023-03-03T06:12:33;99520.02;;;-0.35;82.78
58662;BME280;44432;49.786;22.760;2023-03-03T06:15:05;99521.95;;;-0.31;82.81
58662;BME280;44432;49.786;22.760;2023-03-03T06:17:36;99524.16;;;-0.28;82.73
58662;BME280;44432;49.786;22.760;2023-03-03T06:20:09;99518.64;;;-0.24;82.55
58662;BME280;44432;49.786;22.760;2023-03-03T06:22:39;99524.92;;;-0.20;82.83
58662;BME280;44432;49.786;22.760;2023-03-03T06:25:10;99526.89;;;-0.16;82.82
58662;BME280;44432;49.786;22.760;2023-03-03T06:27:41;99523.88;;;-0.12;82.73
58662;BME280;44432;49.786;22.760;2023-03-03T06:30:13;99523.16;;;-0.08;82.70
58662;BME280;44432;49.786;22.760;2023-03-03T06:32:44;99521.02;;;-0.05;82.51
58662;BME280;44432;49.786;22.760;2023-03-03T06:35:14;99527.47;;;0.02;82.57
58662;BME280;44432;49.786;22.760;2023-03-03T06:37:47;99522.04;;;0.08;82.53
58662;BME280;44432;49.786;22.760;2023-03-03T06:40:19;99524.67;;;0.15;82.49
58662;BME280;44432;49.786;22.760;2023-03-03T06:42:49;99519.28;;;0.19;82.33
58662;BME280;44432;49.786;22.760;2023-03-03T06:45:20;99523.91;;;0.27;82.23
58662;BME280;44432;49.786;22.760;2023-03-03T06:47:51;99523.14;;;0.34;82.10
58662;BME280;44432;49.786;22.760;2023-03-03T06:50:22;99518.38;;;0.40;81.87
58662;BME280;44432;49.786;22.760;2023-03-03T06:53:00;99520.40;;;0.48;81.69
58662;BME280;44432;49.786;22.760;2023-03-03T06:55:31;99518.41;;;0.55;81.40
58662;BME280;44432;49.786;22.760;2023-03-03T06:58:09;99514.50;;;0.57;81.18
58662;BME280;44432;49.786;22.760;2023-03-03T07:00:43;99515.46;;;0.62;81.04
58662;BME280;44432;49.786;22.760;2023-03-03T07:03:16;99516.98;;;0.66;80.81
58662;BME280;44432;49.786;22.760;2023-03-03T07:05:47;99520.36;;;0.69;80.66
58662;BME280;44432;49.786;22.760;2023-03-03T07:08:21;99521.52;;;0.71;80.62
58662;BME280;44432;49.786;22.760;2023-03-03T07:10:53;99523.79;;;0.73;80.52
58662;BME280;44432;49.786;22.760;2023-03-03T07:13:25;99519.65;;;0.75;80.45
58662;BME280;44432;49.786;22.760;2023-03-03T07:15:58;99524.66;;;0.78;80.28
58662;BME280;44432;49.786;22.760;2023-03-03T07:18:38;99517.34;;;0.83;80.36
58662;BME280;44432;49.786;22.760;2023-03-03T07:21:17;99519.50;;;0.87;80.04
58662;BME280;44432;49.786;22.760;2023-03-03T07:23:50;99526.90;;;0.91;79.94
58662;BME280;44432;49.786;22.760;2023-03-03T07:26:24;99522.50;;;0.90;79.74
58662;BME280;44432;49.786;22.760;2023-03-03T07:28:59;99523.26;;;0.93;79.72
58662;BME280;44432;49.786;22.760;2023-03-03T07:31:34;99526.88;;;0.95;79.88
58662;BME280;44432;49.786;22.760;2023-03-03T07:34:18;99522.79;;;0.98;79.77
58662;BME280;44432;49.786;22.760;2023-03-03T07:36:52;99525.27;;;1.03;79.66
58662;BME280;44432;49.786;22.760;2023-03-03T07:39:25;99523.71;;;1.08;79.69
58662;BME280;44432;49.786;22.760;2023-03-03T07:42:06;99523.52;;;1.12;79.65
58662;BME280;44432;49.786;22.760;2023-03-03T07:44:44;99522.44;;;1.16;79.35
58662;BME280;44432;49.786;22.760;2023-03-03T07:47:20;99523.80;;;1.18;79.38
58662;BME280;44432;49.786;22.760;2023-03-03T07:49:54;99522.76;;;1.18;79.22
58662;BME280;44432;49.786;22.760;2023-03-03T07:52:28;99523.06;;;1.20;79.02
58662;BME280;44432;49.786;22.760;2023-03-03T07:55:17;99520.54;;;1.21;79.10
58662;BME280;44432;49.786;22.760;2023-03-03T07:57:52;99518.40;;;1.18;78.76
58662;BME280;44432;49.786;22.760;2023-03-03T08:03:41;99515.65;;;1.20;78.67
58662;BME280;44432;49.786;22.760;2023-03-03T08:06:34;99515.75;;;1.17;78.56
58662;BME280;44432;49.786;22.760;2023-03-03T08:09:40;99512.73;;;1.20;78.84
58662;BME280;44432;49.786;22.760;2023-03-03T08:12:32;99512.61;;;1.21;78.52
58662;BME280;44432;49.786;22.760;2023-03-03T08:15:30;99511.28;;;1.22;78.58
58662;BME280;44432;49.786;22.760;2023-03-03T08:18:07;99513.91;;;1.24;78.41
58662;BME280;44432;49.786;22.760;2023-03-03T08:20:50;99515.37;;;1.27;78.37
58662;BME280;44432;49.786;22.760;2023-03-03T08:23:22;99511.55;;;1.32;78.63
58662;BME280;44432;49.786;22.760;2023-03-03T08:25:52;99504.45;;;1.41;78.59
58662;BME280;44432;49.786;22.760;2023-03-03T08:28:23;99501.14;;;1.52;78.72
58662;BME280;44432;49.786;22.760;2023-03-03T08:30:54;99497.93;;;1.65;78.37
58662;BME280;44432;49.786;22.760;2023-03-03T08:33:25;99497.45;;;1.77;78.00
58662;BME280;44432;49.786;22.760;2023-03-03T08:35:56;99496.19;;;1.86;77.92
58662;BME280;44432;49.786;22.760;2023-03-03T08:38:27;99494.63;;;1.97;77.49
58662;BME280;44432;49.786;22.760;2023-03-03T08:40:57;99496.17;;;2.02;77.34
58662;BME280;44432;49.786;22.760;2023-03-03T08:43:28;99498.41;;;2.09;77.14
58662;BME280;44432;49.786;22.760;2023-03-03T08:46:00;99498.21;;;2.11;76.82
58662;BME280;44432;49.786;22.760;2023-03-03T08:48:34;99499.20;;;2.13;76.45
58662;BME280;44432;49.786;22.760;2023-03-03T08:51:05;99504.38;;;2.18;76.84
58662;BME280;44432;49.786;22.760;2023-03-03T08:53:35;99507.84;;;2.24;76.42
58662;BME280;44432;49.786;22.760;2023-03-03T08:56:07;99512.83;;;2.29;76.37
58662;BME280;44432;49.786;22.760;2023-03-03T08:58:39;99519.80;;;2.35;76.12
58662;BME280;44432;49.786;22.760;2023-03-03T09:01:16;99521.67;;;2.38;76.07
58662;BME280;44432;49.786;22.760;2023-03-03T09:03:47;99520.23;;;2.44;76.32
58662;BME280;44432;49.786;22.760;2023-03-03T09:06:18;99517.28;;;2.49;75.94
58662;BME280;44432;49.786;22.760;2023-03-03T09:08:49;99523.15;;;2.53;75.64
58662;BME280;44432;49.786;22.760;2023-03-03T09:11:24;99515.67;;;2.54;74.97
58662;BME280;44432;49.786;22.760;2023-03-03T09:14:01;99515.31;;;2.60;75.23
58662;BME280;44432;49.786;22.760;2023-03-03T09:16:36;99511.89;;;2.68;74.94
58662;BME280;44432;49.786;22.760;2023-03-03T09:19:24;99513.85;;;2.76;74.92
58662;BME280;44432;49.786;22.760;2023-03-03T09:21:58;99507.57;;;2.78;74.44
58662;BME280;44432;49.786;22.760;2023-03-03T09:24:34;99517.16;;;2.74;74.00
58662;BME280;44432;49.786;22.760;2023-03-03T09:27:13;99524.56;;;2.66;73.97
58662;BME280;44432;49.786;22.760;2023-03-03T09:29:48;99522.63;;;2.63;73.98
58662;BME280;44432;49.786;22.760;2023-03-03T09:32:29;99522.66;;;2.58;73.80
58662;BME280;44432;49.786;22.760;2023-03-03T09:35:01;99524.51;;;2.55;74.24
58662;BME280;44432;49.786;22.760;2023-03-03T09:37:52;99524.05;;;2.49;73.79
58662;BME280;44432;49.786;22.760;2023-03-03T09:40:43;99523.31;;;2.46;74.02
58662;BME280;44432;49.786;22.760;2023-03-03T09:43:22;99524.12;;;2.45;74.06
58662;BME280;44432;49.786;22.760;2023-03-03T09:46:04;99523.46;;;2.45;74.03
58662;BME280;44432;49.786;22.760;2023-03-03T09:48:55;99519.50;;;2.45;73.77
58662;BME280;44432;49.786;22.760;2023-03-03T09:51:55;99517.30;;;2.49;74.06
58662;BME280;44432;49.786;22.760;2023-03-03T09:57:27;99512.17;;;2.63;73.59
58662;BME280;44432;49.786;22.760;2023-03-03T10:00:18;99511.91;;;2.71;73.21
58662;BME280;44432;49.786;22.760;2023-03-03T10:03:01;99515.45;;;2.74;72.91
58662;BME280;44432;49.786;22.760;2023-03-03T10:05:40;99519.29;;;2.75;72.91
58662;BME280;44432;49.786;22.760;2023-03-03T10:08:26;99519.70;;;2.78;72.38
58662;BME280;44432;49.786;22.760;2023-03-03T10:11:07;99521.89;;;2.80;72.17
58662;BME280;44432;49.786;22.760;2023-03-03T10:13:48;99518.34;;;2.89;72.18
58662;BME280;44432;49.786;22.760;2023-03-03T10:16:36;99521.79;;;2.97;71.68
58662;BME280;44432;49.786;22.760;2023-03-03T10:19:19;99523.02;;;3.03;71.85
58662;BME280;44432;49.786;22.760;2023-03-03T10:22:03;99527.83;;;3.17;71.78
58662;BME280;44432;49.786;22.760;2023-03-03T10:24:42;99532.13;;;3.27;71.64
58662;BME280;44432;49.786;22.760;2023-03-03T10:27:27;99533.83;;;3.29;71.20
58662;BME280;44432;49.786;22.760;2023-03-03T10:30:06;99532.77;;;3.24;70.89
58662;BME280;44432;49.786;22.760;2023-03-03T10:32:50;99536.96;;;3.19;70.85
58662;BME280;44432;49.786;22.760;2023-03-03T10:35:57;99533.86;;;3.13;70.72
58662;BME280;44432;49.786;22.760;2023-03-03T10:38:42;99539.62;;;2.97;70.35
58662;BME280;44432;49.786;22.760;2023-03-03T10:41:36;99542.21;;;2.84;69.88
58662;BME280;44432;49.786;22.760;2023-03-03T10:44:28;99537.11;;;2.74;70.05
58662;BME280;44432;49.786;22.760;2023-03-03T10:47:25;99538.28;;;2.67;69.76
58662;BME280;44432;49.786;22.760;2023-03-03T10:50:07;99535.27;;;2.57;69.69
58662;BME280;44432;49.786;22.760;2023-03-03T10:52:48;99526.06;;;2.53;69.90
58662;BME280;44432;49.786;22.760;2023-03-03T10:55:35;99514.91;;;2.57;70.25
58662;BME280;44432;49.786;22.760;2023-03-03T10:58:20;99506.09;;;2.67;70.76
58662;BME280;44432;49.786;22.760;2023-03-03T11:01:00;99508.64;;;2.76;70.30
58662;BME280;44432;49.786;22.760;2023-03-03T11:04:08;99524.87;;;2.77;70.17
58662;BME280;44432;49.786;22.760;2023-03-03T11:06:48;99517.89;;;2.80;69.84
58662;BME280;44432;49.786;22.760;2023-03-03T11:09:32;99522.55;;;2.82;69.85
58662;BME280;44432;49.786;22.760;2023-03-03T11:12:11;99524.42;;;2.88;70.12
58662;BME280;44432;49.786;22.760;2023-03-03T11:14:48;99518.36;;;2.96;69.91
58662;BME280;44432;49.786;22.760;2023-03-03T11:17:27;99507.75;;;3.10;70.05
58662;BME280;44432;49.786;22.760;2023-03-03T11:20:07;99509.09;;;3.26;70.04
58662;BME280;44432;49.786;22.760;2023-03-03T11:22:49;99509.94;;;3.42;69.32
58662;BME280;44432;49.786;22.760;2023-03-03T11:25:28;99492.70;;;3.55;69.20
58662;BME280;44432;49.786;22.760;2023-03-03T11:28:10;99494.99;;;3.69;68.97
58662;BME280;44432;49.786;22.760;2023-03-03T11:30:59;99495.62;;;3.80;68.13
58662;BME280;44432;49.786;22.760;2023-03-03T11:33:35;99487.55;;;3.82;67.48
58662;BME280;44432;49.786;22.760;2023-03-03T11:36:13;99485.23;;;3.82;66.79
58662;BME280;44432;49.786;22.760;2023-03-03T11:38:52;99490.29;;;3.82;66.96
58662;BME280;44432;49.786;22.760;2023-03-03T11:41:36;99485.23;;;3.85;66.80
58662;BME280;44432;49.786;22.760;2023-03-03T11:44:20;99477.92;;;3.87;66.19
58662;BME280;44432;49.786;22.760;2023-03-03T11:46:54;99478.70;;;3.89;66.12
58662;BME280;44432;49.786;22.760;2023-03-03T11:49:31;99476.61;;;3.91;66.05
58662;BME280;44432;49.786;22.760;2023-03-03T11:52:18;99467.98;;;3.95;66.00
58662;BME280;44432;49.786;22.760;2023-03-03T11:54:53;99466.87;;;4.04;66.13
58662;BME280;44432;49.786;22.760;2023-03-03T11:57:31;99463.98;;;4.11;65.68
58662;BME280;44432;49.786;22.760;2023-03-03T12:00:18;99463.44;;;4.22;65.86
58662;BME280;44432;49.786;22.760;2023-03-03T12:03:14;99466.42;;;4.30;65.20
58662;BME280;44432;49.786;22.760;2023-03-03T12:05:57;99469.70;;;4.29;65.09
58662;BME280;44432;49.786;22.760;2023-03-03T12:08:52;99465.03;;;4.25;65.13
58662;BME280;44432;49.786;22.760;2023-03-03T12:11:29;99458.34;;;4.33;65.01
58662;BME280;44432;49.786;22.760;2023-03-03T12:14:08;99454.92;;;4.38;64.65
58662;BME280;44432;49.786;22.760;2023-03-03T12:16:50;99455.48;;;4.41;63.91
58662;BME280;44432;49.786;22.760;2023-03-03T12:19:34;99444.18;;;4.39;64.32
58662;BME280;44432;49.786;22.760;2023-03-03T12:22:21;99440.66;;;4.47;64.32
58662;BME280;44432;49.786;22.760;2023-03-03T12:25:06;99435.12;;;4.53;64.20
58662;BME280;44432;49.786;22.760;2023-03-03T12:27:47;99432.50;;;4.61;64.24
58662;BME280;44432;49.786;22.760;2023-03-03T12:33:20;99427.70;;;4.67;63.30
58662;BME280;44432;49.786;22.760;2023-03-03T12:35:58;99424.78;;;4.70;63.28
58662;BME280;44432;49.786;22.760;2023-03-03T12:38:36;99424.44;;;4.72;63.00
58662;BME280;44432;49.786;22.760;2023-03-03T12:41:11;99420.48;;;4.70;62.81
58662;BME280;44432;49.786;22.760;2023-03-03T12:43:55;99421.59;;;4.73;62.73
58662;BME280;44432;49.786;22.760;2023-03-03T12:46:38;99426.14;;;4.77;62.69
58662;BME280;44432;49.786;22.760;2023-03-03T12:49:10;99420.84;;;4.80;62.39
58662;BME280;44432;49.786;22.760;2023-03-03T12:51:54;99419.41;;;4.81;62.23
58662;BME280;44432;49.786;22.760;2023-03-03T12:54:39;99424.59;;;4.86;62.51
58662;BME280;44432;49.786;22.760;2023-03-03T12:57:15;99427.17;;;4.87;61.96
58662;BME280;44432;49.786;22.760;2023-03-03T12:59:54;99427.25;;;4.84;61.53
58662;BME280;44432;49.786;22.760;2023-03-03T13:02:40;99427.20;;;4.86;61.49
58662;BME280;44432;49.786;22.760;2023-03-03T13:05:21;99423.23;;;4.89;61.16
58662;BME280;44432;49.786;22.760;2023-03-03T13:08:02;99426.57;;;4.89;60.77
58662;BME280;44432;49.786;22.760;2023-03-03T13:10:40;99426.09;;;4.77;60.20
58662;BME280;44432;49.786;22.760;2023-03-03T13:13:17;99418.66;;;4.70;60.65
58662;BME280;44432;49.786;22.760;2023-03-03T13:16:01;99415.70;;;4.73;60.94
58662;BME280;44432;49.786;22.760;2023-03-03T13:18:46;99409.41;;;4.76;60.64
58662;BME280;44432;49.786;22.760;2023-03-03T13:21:22;99409.42;;;4.80;61.04
58662;BME280;44432;49.786;22.760;2023-03-03T13:23:59;99409.75;;;4.91;61.00
58662;BME280;44432;49.786;22.760;2023-03-03T13:26:36;99408.92;;;4.92;60.22
58662;BME280;44432;49.786;22.760;2023-03-03T13:29:18;99407.67;;;4.83;59.78
58662;BME280;44432;49.786;22.760;2023-03-03T13:31:52;99406.69;;;4.78;60.28
58662;BME280;44432;49.786;22.760;2023-03-03T13:34:33;99402.88;;;4.75;60.14
58662;BME280;44432;49.786;22.760;2023-03-03T13:37:13;99402.73;;;4.76;60.21
58662;BME280;44432;49.786;22.760;2023-03-03T13:39:54;99406.98;;;4.79;59.93
58662;BME280;44432;49.786;22.760;2023-03-03T13:42:31;99406.67;;;4.81;59.89
58662;BME280;44432;49.786;22.760;2023-03-03T13:45:06;99399.47;;;4.82;59.76
58662;BME280;44432;49.786;22.760;2023-03-03T13:47:47;99393.81;;;4.87;59.85
58662;BME280;44432;49.786;22.760;2023-03-03T13:50:24;99386.41;;;4.96;59.82